Terminal Aerodrome Forecast
Issued by NWS

Home | Current Version | Previous Version | Text Only | Print | Product List | Glossary On
Versions: 1 2 3 4 5 6 7 8 9 10 11 12 13
000
FTUS45 KRIW 022320
TAFBPI
TAF
KBPI 022320Z 0300/0324 03008KT P6SM FEW100 SCT200
     FM030700 VRB05KT P6SM SCT100 BKN200
     FM032000 VRB10G20KT P6SM VCTS SCT050CB BKN100=

USA.gov is the U.S. government's official web portal to all federal, state and local government web resources and services.